sensor_id;sensor_type;location;lat;lon;timestamp;P1;durP1;ratioP1;P2;durP2;ratioP2
74122;SDS011;62474;50.780;15.074;2022-09-09T05:34:25;8.25;;;3.83;;
74122;SDS011;62474;50.780;15.074;2022-09-09T05:36:52;10.35;;;3.88;;
74122;SDS011;62474;50.780;15.074;2022-09-09T05:39:18;8.13;;;3.72;;
74122;SDS011;62474;50.780;15.074;2022-09-09T05:41:44;7.73;;;3.50;;
74122;SDS011;62474;50.780;15.074;2022-09-09T05:44:10;6.78;;;3.30;;
74122;SDS011;62474;50.780;15.074;2022-09-09T05:46:36;7.30;;;3.25;;
74122;SDS011;62474;50.780;15.074;2022-09-09T05:49:03;8.82;;;3.42;;
74122;SDS011;62474;50.780;15.074;2022-09-09T05:51:30;7.32;;;3.10;;
74122;SDS011;62474;50.780;15.074;2022-09-09T13:08:29;6.40;;;1.40;;
74122;SDS011;62474;50.780;15.074;2022-09-09T13:11:01;5.13;;;1.55;;
74122;SDS011;62474;50.780;15.074;2022-09-09T13:15:58;4.32;;;1.20;;
74122;SDS011;62474;50.780;15.074;2022-09-09T13:18:27;8.15;;;1.30;;
74122;SDS011;62474;50.780;15.074;2022-09-09T13:20:53;3.80;;;1.20;;
74122;SDS011;62474;50.780;15.074;2022-09-09T13:23:21;4.00;;;1.10;;
74122;SDS011;62474;50.780;15.074;2022-09-09T13:25:57;5.03;;;1.15;;
74122;SDS011;62474;50.780;15.074;2022-09-09T13:28:25;5.93;;;1.40;;
74122;SDS011;62474;50.780;15.074;2022-09-09T13:31:01;4.32;;;1.30;;
74122;SDS011;62474;50.780;15.074;2022-09-09T13:33:32;7.37;;;1.30;;
74122;SDS011;62474;50.780;15.074;2022-09-09T13:38:25;3.60;;;1.10;;
74122;SDS011;62474;50.780;15.074;2022-09-09T13:40:53;4.97;;;1.25;;
74122;SDS011;62474;50.780;15.074;2022-09-09T13:43:21;5.88;;;1.20;;
74122;SDS011;62474;50.780;15.074;2022-09-09T13:45:55;4.47;;;1.07;;
74122;SDS011;62474;50.780;15.074;2022-09-09T13:48:21;6.30;;;1.20;;
74122;SDS011;62474;50.780;15.074;2022-09-09T13:50:55;5.82;;;1.45;;
74122;SDS011;62474;50.780;15.074;2022-09-09T13:53:21;4.43;;;1.10;;
74122;SDS011;62474;50.780;15.074;2022-09-09T13:55:47;6.45;;;1.33;;
74122;SDS011;62474;50.780;15.074;2022-09-09T13:58:14;5.63;;;1.17;;
74122;SDS011;62474;50.780;15.074;2022-09-09T14:00:41;4.65;;;1.15;;
74122;SDS011;62474;50.780;15.074;2022-09-09T14:03:09;4.35;;;1.20;;
74122;SDS011;62474;50.780;15.074;2022-09-09T14:05:35;5.30;;;1.13;;
74122;SDS011;62474;50.780;15.074;2022-09-09T14:08:03;4.28;;;1.38;;
74122;SDS011;62474;50.780;15.074;2022-09-09T14:10:29;6.63;;;1.33;;
74122;SDS011;62474;50.780;15.074;2022-09-09T14:12:55;9.15;;;1.40;;
74122;SDS011;62474;50.780;15.074;2022-09-09T14:15:21;9.23;;;1.55;;
74122;SDS011;62474;50.780;15.074;2022-09-09T14:17:47;6.78;;;1.60;;
74122;SDS011;62474;50.780;15.074;2022-09-09T14:20:14;19.45;;;3.38;;
74122;SDS011;62474;50.780;15.074;2022-09-09T14:22:42;11.70;;;3.30;;
74122;SDS011;62474;50.780;15.074;2022-09-09T14:25:09;16.10;;;4.75;;
74122;SDS011;62474;50.780;15.074;2022-09-09T14:27:41;11.10;;;4.13;;
74122;SDS011;62474;50.780;15.074;2022-09-09T14:30:08;7.10;;;2.90;;
74122;SDS011;62474;50.780;15.074;2022-09-09T14:32:35;10.90;;;3.25;;
74122;SDS011;62474;50.780;15.074;2022-09-09T14:35:01;9.73;;;3.43;;
74122;SDS011;62474;50.780;15.074;2022-09-09T14:37:27;9.57;;;3.72;;
74122;SDS011;62474;50.780;15.074;2022-09-09T14:39:55;9.43;;;3.33;;
74122;SDS011;62474;50.780;15.074;2022-09-09T14:42:25;11.35;;;3.72;;
74122;SDS011;62474;50.780;15.074;2022-09-09T14:44:54;11.10;;;3.90;;
74122;SDS011;62474;50.780;15.074;2022-09-09T14:47:20;9.50;;;3.40;;
74122;SDS011;62474;50.780;15.074;2022-09-09T14:49:47;9.13;;;2.88;;
74122;SDS011;62474;50.780;15.074;2022-09-09T14:52:17;9.38;;;2.72;;
74122;SDS011;62474;50.780;15.074;2022-09-09T14:54:43;9.90;;;2.90;;
74122;SDS011;62474;50.780;15.074;2022-09-09T14:57:18;7.20;;;2.50;;
74122;SDS011;62474;50.780;15.074;2022-09-09T14:59:52;6.93;;;2.30;;
74122;SDS011;62474;50.780;15.074;2022-09-09T15:02:18;7.72;;;3.38;;
74122;SDS011;62474;50.780;15.074;2022-09-09T15:04:46;9.02;;;3.00;;
74122;SDS011;62474;50.780;15.074;2022-09-09T15:07:26;8.23;;;2.90;;
74122;SDS011;62474;50.780;15.074;2022-09-09T15:09:53;7.20;;;3.50;;
74122;SDS011;62474;50.780;15.074;2022-09-09T15:12:20;11.47;;;3.20;;
74122;SDS011;62474;50.780;15.074;2022-09-09T15:14:48;7.32;;;3.17;;
74122;SDS011;62474;50.780;15.074;2022-09-09T15:17:22;10.00;;;3.53;;
74122;SDS011;62474;50.780;15.074;2022-09-09T15:20:10;11.18;;;3.72;;
74122;SDS011;62474;50.780;15.074;2022-09-09T15:22:41;7.63;;;3.42;;
74122;SDS011;62474;50.780;15.074;2022-09-09T15:25:07;11.83;;;2.93;;
74122;SDS011;62474;50.780;15.074;2022-09-09T15:27:37;8.45;;;3.55;;
74122;SDS011;62474;50.780;15.074;2022-09-09T15:30:09;12.63;;;2.53;;
74122;SDS011;62474;50.780;15.074;2022-09-09T15:32:40;7.70;;;2.67;;
74122;SDS011;62474;50.780;15.074;2022-09-09T15:35:09;11.95;;;3.42;;
74122;SDS011;62474;50.780;15.074;2022-09-09T15:37:40;11.00;;;4.17;;
74122;SDS011;62474;50.780;15.074;2022-09-09T15:40:12;24.30;;;4.07;;
74122;SDS011;62474;50.780;15.074;2022-09-09T15:42:38;8.85;;;3.17;;
74122;SDS011;62474;50.780;15.074;2022-09-09T15:45:04;9.48;;;3.25;;
74122;SDS011;62474;50.780;15.074;2022-09-09T15:47:33;13.05;;;3.03;;
74122;SDS011;62474;50.780;15.074;2022-09-09T15:50:20;8.43;;;2.90;;
74122;SDS011;62474;50.780;15.074;2022-09-09T15:53:06;8.35;;;3.05;;
74122;SDS011;62474;50.780;15.074;2022-09-09T15:55:34;7.15;;;3.00;;
74122;SDS011;62474;50.780;15.074;2022-09-09T15:58:06;7.18;;;2.22;;
74122;SDS011;62474;50.780;15.074;2022-09-09T16:02:59;8.43;;;2.53;;
74122;SDS011;62474;50.780;15.074;2022-09-09T16:05:27;7.90;;;2.45;;
74122;SDS011;62474;50.780;15.074;2022-09-09T16:08:02;7.80;;;2.97;;
74122;SDS011;62474;50.780;15.074;2022-09-09T16:10:29;6.22;;;2.03;;
74122;SDS011;62474;50.780;15.074;2022-09-09T16:12:57;9.05;;;2.55;;
74122;SDS011;62474;50.780;15.074;2022-09-09T16:15:29;6.93;;;2.00;;
74122;SDS011;62474;50.780;15.074;2022-09-09T16:17:55;7.95;;;2.00;;
74122;SDS011;62474;50.780;15.074;2022-09-09T16:20:24;6.10;;;2.10;;
74122;SDS011;62474;50.780;15.074;2022-09-09T16:22:53;5.70;;;2.05;;
74122;SDS011;62474;50.780;15.074;2022-09-09T16:25:26;4.35;;;1.63;;
74122;SDS011;62474;50.780;15.074;2022-09-09T16:27:52;5.10;;;1.97;;
74122;SDS011;62474;50.780;15.074;2022-09-09T16:30:21;5.70;;;1.95;;
74122;SDS011;62474;50.780;15.074;2022-09-09T16:32:50;6.72;;;1.75;;
74122;SDS011;62474;50.780;15.074;2022-09-09T16:35:25;11.85;;;2.17;;
74122;SDS011;62474;50.780;15.074;2022-09-09T16:37:51;7.47;;;1.90;;
74122;SDS011;62474;50.780;15.074;2022-09-09T16:40:22;5.17;;;1.60;;
74122;SDS011;62474;50.780;15.074;2022-09-09T16:42:48;7.20;;;2.05;;
74122;SDS011;62474;50.780;15.074;2022-09-09T16:45:14;6.40;;;2.50;;
74122;SDS011;62474;50.780;15.074;2022-09-09T16:47:48;6.72;;;2.00;;
74122;SDS011;62474;50.780;15.074;2022-09-09T16:50:17;5.18;;;1.95;;
74122;SDS011;62474;50.780;15.074;2022-09-09T16:53:08;5.37;;;2.17;;
74122;SDS011;62474;50.780;15.074;2022-09-09T16:55:42;7.35;;;2.00;;
74122;SDS011;62474;50.780;15.074;2022-09-09T16:58:11;6.05;;;1.90;;
74122;SDS011;62474;50.780;15.074;2022-09-09T17:00:41;6.60;;;2.45;;
74122;SDS011;62474;50.780;15.074;2022-09-09T17:03:14;6.13;;;2.63;;
74122;SDS011;62474;50.780;15.074;2022-09-09T17:05:47;7.60;;;2.10;;
74122;SDS011;62474;50.780;15.074;2022-09-09T17:08:13;6.03;;;1.80;;
74122;SDS011;62474;50.780;15.074;2022-09-09T17:10:50;8.57;;;2.63;;
74122;SDS011;62474;50.780;15.074;2022-09-09T17:13:25;5.85;;;1.90;;
74122;SDS011;62474;50.780;15.074;2022-09-09T17:15:54;6.05;;;2.20;;
74122;SDS011;62474;50.780;15.074;2022-09-09T17:18:20;5.60;;;1.90;;
74122;SDS011;62474;50.780;15.074;2022-09-09T17:20:49;6.00;;;2.20;;
74122;SDS011;62474;50.780;15.074;2022-09-09T17:23:15;5.90;;;2.13;;
74122;SDS011;62474;50.780;15.074;2022-09-09T17:25:55;5.82;;;2.20;;
74122;SDS011;62474;50.780;15.074;2022-09-09T17:28:44;5.80;;;1.70;;
74122;SDS011;62474;50.780;15.074;2022-09-09T17:31:14;4.80;;;1.80;;
74122;SDS011;62474;50.780;15.074;2022-09-09T17:33:44;7.28;;;2.38;;
74122;SDS011;62474;50.780;15.074;2022-09-09T17:36:19;7.00;;;2.40;;
74122;SDS011;62474;50.780;15.074;2022-09-09T17:38:47;7.20;;;2.53;;
74122;SDS011;62474;50.780;15.074;2022-09-09T18:05:50;6.28;;;2.70;;
74122;SDS011;62474;50.780;15.074;2022-09-09T18:08:16;6.37;;;1.97;;
74122;SDS011;62474;50.780;15.074;2022-09-09T18:10:50;7.88;;;2.63;;
74122;SDS011;62474;50.780;15.074;2022-09-09T18:13:19;5.55;;;2.28;;
74122;SDS011;62474;50.780;15.074;2022-09-09T18:15:45;6.88;;;2.22;;
74122;SDS011;62474;50.780;15.074;2022-09-09T18:18:11;5.82;;;1.70;;
74122;SDS011;62474;50.780;15.074;2022-09-09T18:20:38;5.00;;;1.97;;
74122;SDS011;62474;50.780;15.074;2022-09-09T18:23:04;5.70;;;1.80;;
74122;SDS011;62474;50.780;15.074;2022-09-09T18:25:39;5.95;;;2.17;;
74122;SDS011;62474;50.780;15.074;2022-09-09T18:28:05;6.05;;;2.10;;
74122;SDS011;62474;50.780;15.074;2022-09-09T18:30:32;7.32;;;2.10;;
74122;SDS011;62474;50.780;15.074;2022-09-09T18:32:58;7.27;;;2.10;;
74122;SDS011;62474;50.780;15.074;2022-09-09T18:35:25;5.80;;;2.00;;
74122;SDS011;62474;50.780;15.074;2022-09-09T18:37:51;6.25;;;2.10;;
74122;SDS011;62474;50.780;15.074;2022-09-09T18:40:19;6.00;;;2.20;;
74122;SDS011;62474;50.780;15.074;2022-09-09T18:42:45;6.85;;;2.00;;
74122;SDS011;62474;50.780;15.074;2022-09-09T18:45:11;5.33;;;1.90;;
74122;SDS011;62474;50.780;15.074;2022-09-09T18:47:37;5.60;;;2.10;;
74122;SDS011;62474;50.780;15.074;2022-09-09T18:50:04;7.55;;;1.90;;
74122;SDS011;62474;50.780;15.074;2022-09-09T18:52:30;5.72;;;1.80;;
74122;SDS011;62474;50.780;15.074;2022-09-09T18:54:56;6.63;;;1.73;;
74122;SDS011;62474;50.780;15.074;2022-09-09T18:57:22;5.23;;;2.20;;
74122;SDS011;62474;50.780;15.074;2022-09-09T18:59:48;5.47;;;2.00;;
74122;SDS011;62474;50.780;15.074;2022-09-09T19:02:14;5.35;;;2.00;;
74122;SDS011;62474;50.780;15.074;2022-09-09T19:04:40;5.63;;;1.90;;
74122;SDS011;62474;50.780;15.074;2022-09-09T19:07:08;6.28;;;2.00;;
74122;SDS011;62474;50.780;15.074;2022-09-09T19:09:38;7.10;;;2.63;;
74122;SDS011;62474;50.780;15.074;2022-09-09T19:15:10;6.38;;;2.55;;
74122;SDS011;62474;50.780;15.074;2022-09-09T19:17:41;5.68;;;2.30;;
74122;SDS011;62474;50.780;15.074;2022-09-09T19:20:22;6.97;;;2.33;;
74122;SDS011;62474;50.780;15.074;2022-09-09T19:22:54;6.53;;;2.23;;
74122;SDS011;62474;50.780;15.074;2022-09-09T19:25:26;5.75;;;2.17;;
74122;SDS011;62474;50.780;15.074;2022-09-09T19:27:55;6.75;;;2.30;;
74122;SDS011;62474;50.780;15.074;2022-09-09T19:30:22;6.97;;;2.00;;
74122;SDS011;62474;50.780;15.074;2022-09-09T19:32:49;5.50;;;1.98;;
74122;SDS011;62474;50.780;15.074;2022-09-09T19:35:16;6.77;;;1.90;;
74122;SDS011;62474;50.780;15.074;2022-09-09T19:37:44;8.48;;;2.50;;
74122;SDS011;62474;50.780;15.074;2022-09-09T19:40:10;6.32;;;2.40;;
74122;SDS011;62474;50.780;15.074;2022-09-09T19:42:36;5.75;;;2.33;;
74122;SDS011;62474;50.780;15.074;2022-09-09T19:45:02;6.47;;;2.30;;
74122;SDS011;62474;50.780;15.074;2022-09-09T19:47:28;6.70;;;2.10;;
74122;SDS011;62474;50.780;15.074;2022-09-09T19:49:54;7.47;;;2.65;;
74122;SDS011;62474;50.780;15.074;2022-09-09T19:52:20;7.53;;;2.10;;
74122;SDS011;62474;50.780;15.074;2022-09-09T19:54:46;7.28;;;2.15;;
74122;SDS011;62474;50.780;15.074;2022-09-09T19:57:12;6.50;;;1.92;;
74122;SDS011;62474;50.780;15.074;2022-09-09T19:59:38;7.47;;;2.00;;
74122;SDS011;62474;50.780;15.074;2022-09-09T20:02:04;7.20;;;2.10;;
74122;SDS011;62474;50.780;15.074;2022-09-09T20:04:30;5.80;;;2.30;;
74122;SDS011;62474;50.780;15.074;2022-09-09T20:06:58;5.97;;;2.00;;
74122;SDS011;62474;50.780;15.074;2022-09-09T20:09:24;6.18;;;2.25;;
74122;SDS011;62474;50.780;15.074;2022-09-09T20:11:51;5.33;;;1.97;;
74122;SDS011;62474;50.780;15.074;2022-09-09T20:14:17;5.60;;;2.10;;
74122;SDS011;62474;50.780;15.074;2022-09-09T20:16:43;7.03;;;2.28;;
74122;SDS011;62474;50.780;15.074;2022-09-09T20:19:11;6.45;;;2.15;;
74122;SDS011;62474;50.780;15.074;2022-09-09T20:21:41;8.25;;;2.47;;
74122;SDS011;62474;50.780;15.074;2022-09-09T20:24:12;6.80;;;2.50;;
74122;SDS011;62474;50.780;15.074;2022-09-09T20:26:39;6.68;;;2.50;;
74122;SDS011;62474;50.780;15.074;2022-09-09T20:29:06;7.03;;;2.30;;
74122;SDS011;62474;50.780;15.074;2022-09-09T20:31:34;5.72;;;2.60;;
74122;SDS011;62474;50.780;15.074;2022-09-09T20:34:10;6.38;;;2.45;;
74122;SDS011;62474;50.780;15.074;2022-09-09T20:36:37;5.63;;;2.40;;
74122;SDS011;62474;50.780;15.074;2022-09-09T20:39:08;5.85;;;2.30;;
74122;SDS011;62474;50.780;15.074;2022-09-09T20:41:35;7.30;;;2.50;;
74122;SDS011;62474;50.780;15.074;2022-09-09T20:44:03;5.40;;;2.40;;
74122;SDS011;62474;50.780;15.074;2022-09-09T20:46:38;6.32;;;2.63;;
74122;SDS011;62474;50.780;15.074;2022-09-09T20:49:04;5.30;;;2.17;;
74122;SDS011;62474;50.780;15.074;2022-09-09T20:51:32;5.70;;;2.20;;
74122;SDS011;62474;50.780;15.074;2022-09-09T20:54:00;5.30;;;2.70;;
